createdAt,value
2023-04-01T00:01:20.948Z,5.70
2023-04-01T00:03:44.313Z,5.27
2023-04-01T00:06:06.721Z,5.50
2023-04-01T00:08:29.620Z,5.60
2023-04-01T00:10:52.172Z,3.50
2023-04-01T00:13:13.893Z,4.67
2023-04-01T00:15:35.950Z,2.93
2023-04-01T00:17:58.345Z,3.37
2023-04-01T00:20:20.006Z,4.87
2023-04-01T00:22:42.224Z,4.93
2023-04-01T00:25:05.805Z,5.00
2023-04-01T00:27:27.567Z,3.53
2023-04-01T00:29:49.228Z,4.07
2023-04-01T00:32:11.044Z,5.00
2023-04-01T00:34:32.682Z,5.23
2023-04-01T00:36:55.143Z,4.87
2023-04-01T00:39:17.529Z,2.90
2023-04-01T00:41:39.324Z,4.77
2023-04-01T00:44:27.636Z,4.17
2023-04-01T00:46:50.018Z,2.47
2023-04-01T00:49:11.998Z,2.70
2023-04-01T00:51:36.430Z,5.30
2023-04-01T00:54:02.817Z,2.63
2023-04-01T00:56:41.325Z,4.57
2023-04-01T00:59:12.108Z,3.70
2023-04-01T01:01:36.132Z,4.97
2023-04-01T01:03:58.176Z,4.82
2023-04-01T01:07:07.397Z,2.93
2023-04-01T01:09:52.567Z,3.27
2023-04-01T01:12:45.799Z,4.93
2023-04-01T01:15:12.774Z,4.27
2023-04-01T01:18:01.959Z,5.50
2023-04-01T01:21:03.688Z,3.10
2023-04-01T01:24:23.705Z,6.90
2023-04-01T01:27:03.806Z,5.53
2023-04-01T01:29:56.326Z,5.33
2023-04-01T01:32:39.373Z,5.03
2023-04-01T01:35:34.414Z,3.87
2023-04-01T01:38:10.952Z,6.37
2023-04-01T01:43:07.409Z,6.53
2023-04-01T01:45:33.262Z,5.13
2023-04-01T01:47:59.032Z,5.87
2023-04-01T01:50:23.479Z,6.27
2023-04-01T01:55:36.927Z,5.83
2023-04-01T01:58:06.910Z,5.00
2023-04-01T02:00:29.725Z,5.90
2023-04-01T02:02:51.909Z,6.87
2023-04-01T02:05:23.537Z,6.87
2023-04-01T02:08:00.003Z,7.07
2023-04-01T02:10:26.537Z,6.43
2023-04-01T02:12:52.103Z,6.17
2023-04-01T02:15:17.951Z,7.83
2023-04-01T02:17:46.485Z,8.27
2023-04-01T02:20:20.736Z,6.87
2023-04-01T02:22:50.629Z,7.70
2023-04-01T02:25:18.942Z,6.20
2023-04-01T02:27:45.903Z,6.33
2023-04-01T02:30:08.851Z,6.83
2023-04-01T02:32:34.883Z,7.47
2023-04-01T02:34:57.572Z,8.10
2023-04-01T02:37:19.563Z,10.63
2023-04-01T02:39:43.370Z,9.03
2023-04-01T02:42:06.472Z,9.85
2023-04-01T02:44:28.252Z,10.27
2023-04-01T02:46:49.982Z,9.77
2023-04-01T02:49:12.215Z,10.07
2023-04-01T02:51:34.489Z,10.90
2023-04-01T02:53:56.554Z,9.07
2023-04-01T02:56:18.462Z,9.13
2023-04-01T02:58:40.088Z,7.80
2023-04-01T03:01:01.899Z,7.33
2023-04-01T03:03:23.697Z,8.20
2023-04-01T03:05:45.628Z,6.17
2023-04-01T03:08:07.402Z,6.10
2023-04-01T03:10:29.136Z,5.77
2023-04-01T03:12:51.002Z,7.90
2023-04-01T03:15:15.620Z,7.33
2023-04-01T03:19:58.982Z,8.63
2023-04-01T03:22:22.041Z,9.10
2023-04-01T03:24:43.746Z,10.43
2023-04-01T03:27:05.496Z,10.60
2023-04-01T03:29:27.203Z,12.10
2023-04-01T03:31:48.960Z,11.23
2023-04-01T03:34:10.908Z,12.13
2023-04-01T03:36:32.597Z,11.33
2023-04-01T03:38:54.273Z,12.00
2023-04-01T03:41:24.198Z,12.80
2023-04-01T03:43:46.202Z,12.67
2023-04-01T03:46:08.147Z,12.00
2023-04-01T03:48:29.883Z,12.20
2023-04-01T03:50:51.591Z,12.40
2023-04-01T03:53:13.373Z,14.23
2023-04-01T03:55:38.612Z,12.83
2023-04-01T03:58:02.955Z,13.13
2023-04-01T04:00:24.668Z,14.35
2023-04-01T04:02:50.505Z,12.30
2023-04-01T04:05:16.728Z,14.53
2023-04-01T04:07:38.757Z,15.07
2023-04-01T04:12:45.266Z,12.87
2023-04-01T04:15:26.864Z,13.97
2023-04-01T04:18:08.598Z,10.00
2023-04-01T04:20:52.151Z,11.50
2023-04-01T04:23:34.672Z,9.97
2023-04-01T04:26:16.930Z,10.13
2023-04-01T04:29:04.129Z,8.13
2023-04-01T04:31:46.711Z,9.37
2023-04-01T04:34:28.439Z,9.03
2023-04-01T04:37:10.291Z,10.47
2023-04-01T04:39:53.080Z,8.00
2023-04-01T04:42:15.260Z,7.73
2023-04-01T04:44:37.591Z,8.13
2023-04-01T04:46:59.219Z,5.43
2023-04-01T04:49:21.813Z,5.83
2023-04-01T04:51:43.780Z,5.77
2023-04-01T04:54:07.974Z,5.13
2023-04-01T04:56:53.933Z,5.70
2023-04-01T04:59:16.850Z,6.30
2023-04-01T05:01:57.190Z,5.50
2023-04-01T05:04:18.948Z,6.40
2023-04-01T05:06:40.775Z,5.07
2023-04-01T05:09:02.790Z,5.67
2023-04-01T05:11:24.799Z,5.73
2023-04-01T05:13:47.791Z,6.60
2023-04-01T05:16:16.831Z,7.83
2023-04-01T05:18:38.958Z,7.87
2023-04-01T05:21:01.148Z,6.60
2023-04-01T05:23:23.674Z,6.50
2023-04-01T05:25:46.385Z,7.23
2023-04-01T05:28:08.176Z,7.13
2023-04-01T05:30:30.267Z,6.57
2023-04-01T05:33:05.944Z,6.83
2023-04-01T05:35:28.007Z,6.33
2023-04-01T05:37:50.246Z,7.90
2023-04-01T05:40:13.676Z,7.20
2023-04-01T05:42:36.968Z,9.20
2023-04-01T05:44:59.896Z,10.83
2023-04-01T05:47:40.316Z,10.17
2023-04-01T05:50:02.104Z,9.93
2023-04-01T05:52:25.241Z,9.90
2023-04-01T05:54:46.942Z,10.00
2023-04-01T05:57:08.713Z,10.47
2023-04-01T05:59:32.260Z,12.30
2023-04-01T06:01:54.356Z,11.77
2023-04-01T06:04:19.164Z,13.30
2023-04-01T06:06:41.455Z,15.23
2023-04-01T06:09:24.600Z,14.80
2023-04-01T06:12:31.512Z,13.47
2023-04-01T06:15:13.379Z,15.32
2023-04-01T06:18:03.278Z,15.97
2023-04-01T06:20:41.544Z,17.70
2023-04-01T06:23:43.518Z,15.90
2023-04-01T06:27:00.951Z,18.43
2023-04-01T06:30:19.556Z,17.90
2023-04-01T06:32:53.859Z,19.33
2023-04-01T06:35:51.246Z,20.17
2023-04-01T06:38:35.746Z,19.93
2023-04-01T06:41:30.015Z,19.90
2023-04-01T06:44:20.413Z,21.33
2023-04-01T06:47:22.603Z,21.83
2023-04-01T06:50:58.022Z,18.13
2023-04-01T06:54:10.619Z,20.57
2023-04-01T06:57:01.650Z,22.07
2023-04-01T06:59:29.306Z,19.63
2023-04-01T07:02:11.312Z,20.17
2023-04-01T07:04:40.734Z,20.60
2023-04-01T07:07:14.986Z,19.80
2023-04-01T07:10:00.639Z,18.35
2023-04-01T07:12:44.480Z,18.17
2023-04-01T07:15:45.075Z,20.00
2023-04-01T07:18:19.057Z,19.60
2023-04-01T07:20:41.879Z,18.88
2023-04-01T07:23:11.854Z,19.13
2023-04-01T07:25:54.872Z,19.47
2023-04-01T07:28:35.822Z,19.03
2023-04-01T07:31:53.946Z,17.53
2023-04-01T07:34:28.733Z,19.07
2023-04-01T07:37:31.830Z,20.13
2023-04-01T07:40:17.280Z,17.40
2023-04-01T07:45:36.837Z,17.67
2023-04-01T07:48:24.949Z,18.80
2023-04-01T07:51:11.885Z,18.70
2023-04-01T07:53:43.220Z,18.03
2023-04-01T07:56:29.141Z,18.70
2023-04-01T07:59:36.693Z,19.07
2023-04-01T08:03:05.922Z,16.50
2023-04-01T08:06:26.753Z,18.13
2023-04-01T08:09:24.234Z,16.80
2023-04-01T08:12:33.715Z,19.60
2023-04-01T08:15:42.251Z,19.67
2023-04-01T08:18:53.991Z,18.80
2023-04-01T08:21:26.948Z,14.87
2023-04-01T08:23:53.244Z,14.27
2023-04-01T08:26:36.677Z,12.00
2023-04-01T08:29:12.772Z,12.57
2023-04-01T08:32:11.565Z,12.27
2023-04-01T08:34:47.044Z,11.37
2023-04-01T08:37:29.880Z,12.23
2023-04-01T08:40:15.008Z,8.17
2023-04-01T08:43:17.177Z,13.77
2023-04-01T08:45:54.352Z,10.60
2023-04-01T08:48:44.864Z,12.03
2023-04-01T08:52:16.796Z,9.98
2023-04-01T08:54:49.061Z,11.07
2023-04-01T08:58:22.110Z,10.70
2023-04-01T09:01:53.694Z,13.17
2023-04-01T09:05:23.606Z,12.67
2023-04-01T09:08:13.568Z,13.50
2023-04-01T09:11:03.250Z,12.93
2023-04-01T09:14:25.393Z,15.00
2023-04-01T09:17:39.277Z,15.37
2023-04-01T09:20:45.665Z,14.30
2023-04-01T09:23:49.206Z,15.00
2023-04-01T09:26:22.606Z,13.57
2023-04-01T09:29:36.131Z,13.97
2023-04-01T09:32:38.786Z,15.17
2023-04-01T09:35:42.619Z,15.20
2023-04-01T09:38:16.340Z,18.17
2023-04-01T09:41:08.694Z,18.17
2023-04-01T09:44:15.924Z,20.40
2023-04-01T09:47:18.286Z,19.17
2023-04-01T09:50:01.467Z,18.07
2023-04-01T09:52:42.924Z,20.03
2023-04-01T09:55:50.962Z,17.50
2023-04-01T09:59:08.018Z,19.23
2023-04-01T10:02:37.234Z,18.43
2023-04-01T10:06:00.741Z,16.60
2023-04-01T10:08:55.101Z,19.03
2023-04-01T10:12:23.559Z,17.63
2023-04-01T10:15:31.154Z,18.67
2023-04-01T10:18:12.166Z,15.17
2023-04-01T10:20:58.523Z,14.80
2023-04-01T10:24:03.050Z,13.90
2023-04-01T10:27:06.038Z,13.73
2023-04-01T10:30:42.310Z,16.77
2023-04-01T10:33:57.114Z,13.07
2023-04-01T10:36:46.456Z,14.23
2023-04-01T10:39:30.991Z,12.60
2023-04-01T10:42:47.340Z,15.73
2023-04-01T10:46:33.660Z,14.50
2023-04-01T10:49:52.205Z,14.20
2023-04-01T10:52:42.342Z,12.60
2023-04-01T10:55:48.045Z,13.93
2023-04-01T10:59:23.711Z,14.93
2023-04-01T11:05:47.656Z,13.73
2023-04-01T11:08:40.938Z,15.15
2023-04-01T11:11:36.804Z,13.80
2023-04-01T11:14:50.839Z,14.00
2023-04-01T11:17:41.091Z,11.93
2023-04-01T11:20:31.297Z,12.03
2023-04-01T11:23:11.325Z,15.27
2023-04-01T11:26:07.844Z,10.00
2023-04-01T11:29:10.512Z,10.40
2023-04-01T11:31:48.967Z,9.70
2023-04-01T11:34:50.152Z,8.90
2023-04-01T11:37:38.112Z,8.90
2023-04-01T11:40:58.055Z,7.70
2023-04-01T11:44:23.482Z,8.43
2023-04-01T11:47:31.166Z,8.60
2023-04-01T11:50:27.728Z,8.20
2023-04-01T11:53:14.717Z,10.57
2023-04-01T11:56:30.698Z,9.07
2023-04-01T11:59:05.689Z,9.88
2023-04-01T12:04:57.855Z,11.30
2023-04-01T12:07:34.881Z,10.87
2023-04-01T12:10:22.978Z,11.03
2023-04-01T12:13:06.420Z,13.13
2023-04-01T12:15:49.661Z,13.27
2023-04-01T12:18:29.752Z,12.00
2023-04-01T12:21:21.970Z,14.90
2023-04-01T12:24:28.162Z,14.13
2023-04-01T12:27:36.147Z,12.20
2023-04-01T12:30:31.291Z,9.90
2023-04-01T12:33:17.333Z,8.57
2023-04-01T12:35:48.797Z,7.87
2023-04-01T12:38:46.713Z,7.27
2023-04-01T12:41:38.168Z,7.43
2023-04-01T12:44:14.215Z,5.93
2023-04-01T12:47:15.298Z,6.27
2023-04-01T12:50:10.653Z,5.33
2023-04-01T12:52:44.657Z,6.00
2023-04-01T12:55:29.297Z,7.37
2023-04-01T12:58:22.428Z,6.82
2023-04-01T13:01:08.996Z,6.53
2023-04-01T13:04:06.115Z,5.93
2023-04-01T13:06:50.730Z,8.70
2023-04-01T13:09:52.480Z,6.57
2023-04-01T13:12:39.677Z,7.13
2023-04-01T13:15:35.523Z,5.67
2023-04-01T13:18:58.053Z,6.97
2023-04-01T13:21:43.653Z,7.20
2023-04-01T13:24:25.741Z,6.20
2023-04-01T13:27:11.679Z,7.10
2023-04-01T13:29:44.339Z,6.33
2023-04-01T13:32:43.219Z,10.07
2023-04-01T13:35:35.052Z,8.30
2023-04-01T13:38:28.995Z,8.67
2023-04-01T13:41:13.977Z,7.67
2023-04-01T13:43:40.997Z,9.00
2023-04-01T13:46:02.752Z,6.83
2023-04-01T13:48:53.800Z,8.00
2023-04-01T13:51:50.410Z,7.43
2023-04-01T13:54:49.960Z,7.37
2023-04-01T13:57:56.000Z,7.23
2023-04-01T14:03:30.362Z,8.57
2023-04-01T14:06:19.190Z,7.97
2023-04-01T14:09:00.948Z,8.27
2023-04-01T14:11:55.715Z,9.60
2023-04-01T14:17:45.532Z,8.63
2023-04-01T14:20:41.754Z,10.23
2023-04-01T14:23:15.870Z,7.97
2023-04-01T14:26:04.274Z,7.13
2023-04-01T14:28:42.827Z,7.23
2023-04-01T14:31:11.129Z,7.50
2023-04-01T14:34:01.184Z,9.50
2023-04-01T14:36:47.848Z,6.97
2023-04-01T14:40:03.091Z,9.07
2023-04-01T14:42:28.276Z,7.93
2023-04-01T14:45:24.238Z,9.33
2023-04-01T14:48:18.750Z,9.60
2023-04-01T14:51:11.718Z,7.47
2023-04-01T14:53:46.768Z,7.77
2023-04-01T14:56:08.740Z,10.77
2023-04-01T14:58:46.954Z,9.37
2023-04-01T15:02:02.996Z,11.70
2023-04-01T15:04:57.067Z,9.32
2023-04-01T15:08:07.180Z,9.87
2023-04-01T15:11:02.769Z,9.40
2023-04-01T15:14:07.062Z,9.13
2023-04-01T15:16:55.866Z,10.00
2023-04-01T15:20:12.190Z,9.27
2023-04-01T15:26:14.725Z,10.20
2023-04-01T15:29:17.261Z,13.13
2023-04-01T15:31:50.995Z,11.83
2023-04-01T15:34:34.611Z,10.27
2023-04-01T15:37:24.119Z,10.48
2023-04-01T15:40:24.088Z,11.10
2023-04-01T15:43:13.555Z,10.93
2023-04-01T15:46:03.597Z,10.70
2023-04-01T15:48:47.174Z,12.10
2023-04-01T15:51:23.970Z,10.63
2023-04-01T15:53:54.044Z,11.13
2023-04-01T15:56:50.455Z,11.53
2023-04-01T16:00:02.234Z,13.73
2023-04-01T16:03:12.133Z,10.57
2023-04-01T16:06:27.116Z,12.47
2023-04-01T16:09:28.236Z,17.40
2023-04-01T16:12:02.305Z,14.07
2023-04-01T16:14:51.637Z,11.67
2023-04-01T16:17:38.363Z,11.97
2023-04-01T16:20:23.026Z,11.93
2023-04-01T16:23:13.113Z,11.85
2023-04-01T16:25:48.334Z,11.40
2023-04-01T16:28:39.718Z,11.63
2023-04-01T16:31:27.084Z,12.97
2023-04-01T16:34:46.195Z,12.63
2023-04-01T16:37:20.776Z,11.20
2023-04-01T16:40:17.523Z,10.88
2023-04-01T16:42:53.683Z,15.93
2023-04-01T16:45:37.318Z,10.70
2023-04-01T16:48:18.348Z,11.57
2023-04-01T16:51:09.968Z,11.83
2023-04-01T16:54:01.545Z,12.43
2023-04-01T16:56:29.641Z,11.93
2023-04-01T16:59:17.297Z,9.63
2023-04-01T17:02:11.654Z,11.53
2023-04-01T17:04:49.759Z,7.73
2023-04-01T17:07:37.984Z,7.23
2023-04-01T17:10:29.292Z,5.23
2023-04-01T17:13:23.579Z,3.57
2023-04-01T17:16:25.307Z,2.70
2023-04-01T17:19:33.670Z,2.77
2023-04-01T17:22:14.388Z,3.10
2023-04-01T17:25:09.288Z,3.10
2023-04-01T17:28:09.331Z,3.00
2023-04-01T17:30:50.969Z,3.83
2023-04-01T17:33:54.173Z,2.90
2023-04-01T17:36:31.023Z,3.10
2023-04-01T17:39:21.834Z,3.27
2023-04-01T17:42:15.730Z,3.73
2023-04-01T17:44:56.352Z,2.80
2023-04-01T17:47:52.590Z,3.80
2023-04-01T17:50:43.255Z,4.07
2023-04-01T17:53:53.364Z,4.10
2023-04-01T17:57:04.226Z,3.60
2023-04-01T17:59:59.210Z,3.40
2023-04-01T18:02:58.257Z,4.25
2023-04-01T18:05:31.230Z,3.20
2023-04-01T18:08:06.628Z,3.33
2023-04-01T18:11:09.603Z,4.53
2023-04-01T18:13:53.311Z,3.63
2023-04-01T18:16:23.936Z,4.07
2023-04-01T18:19:07.360Z,4.93
2023-04-01T18:21:45.491Z,4.50
2023-04-01T18:24:32.990Z,4.57
2023-04-01T18:27:19.955Z,6.17
2023-04-01T18:29:53.490Z,6.07
2023-04-01T18:32:38.155Z,6.27
2023-04-01T18:35:30.774Z,6.82
2023-04-01T18:38:07.535Z,5.77
2023-04-01T18:40:39.088Z,5.80
2023-04-01T18:43:51.383Z,5.80
2023-04-01T18:46:49.850Z,6.07
2023-04-01T18:49:28.224Z,5.93
2023-04-01T18:52:14.641Z,6.47
2023-04-01T18:55:14.851Z,6.93
2023-04-01T18:57:51.927Z,7.57
2023-04-01T19:00:26.989Z,6.73
2023-04-01T19:03:35.547Z,7.97
2023-04-01T19:06:02.570Z,7.40
2023-04-01T19:08:37.334Z,6.60
2023-04-01T19:11:22.809Z,8.40
2023-04-01T19:14:07.901Z,8.33
2023-04-01T19:17:00.303Z,8.05
2023-04-01T19:19:34.624Z,7.60
2023-04-01T19:22:00.853Z,8.20
2023-04-01T19:24:43.960Z,8.50
2023-04-01T19:27:27.084Z,8.97
2023-04-01T19:30:38.028Z,8.73
2023-04-01T19:33:36.662Z,8.63
2023-04-01T19:36:15.234Z,8.97
2023-04-01T19:39:04.549Z,9.07
2023-04-01T19:42:05.088Z,8.77
2023-04-01T19:44:58.050Z,9.27
2023-04-01T19:48:01.216Z,9.37
2023-04-01T19:50:58.852Z,9.03
2023-04-01T19:54:03.404Z,10.17
2023-04-01T19:56:40.288Z,10.20
2023-04-01T19:59:31.958Z,10.53
2023-04-01T20:02:27.916Z,9.30
2023-04-01T20:04:57.281Z,9.43
2023-04-01T20:07:41.864Z,10.50
2023-04-01T20:10:26.385Z,9.55
2023-04-01T20:13:00.390Z,8.30
2023-04-01T20:15:31.184Z,9.18
2023-04-01T20:17:58.056Z,9.17
2023-04-01T20:20:25.819Z,9.13
2023-04-01T20:22:47.413Z,6.80
2023-04-01T20:25:27.430Z,7.70
2023-04-01T20:28:18.492Z,7.67
2023-04-01T20:31:26.170Z,11.43
2023-04-01T20:33:50.982Z,7.50
2023-04-01T20:37:02.096Z,8.17
2023-04-01T20:39:59.289Z,8.30
2023-04-01T20:42:42.528Z,10.03
2023-04-01T20:45:48.530Z,9.10
2023-04-01T20:48:36.550Z,8.32
2023-04-01T20:51:06.989Z,9.27
2023-04-01T20:53:43.974Z,9.47
2023-04-01T20:56:16.222Z,10.13
2023-04-01T20:59:07.553Z,9.63
2023-04-01T21:02:23.620Z,10.60
2023-04-01T21:05:10.266Z,8.23
2023-04-01T21:07:50.785Z,8.50
2023-04-01T21:10:41.301Z,9.40
2023-04-01T21:13:33.624Z,9.03
2023-04-01T21:16:38.616Z,9.30
2023-04-01T21:20:10.566Z,9.53
2023-04-01T21:23:21.412Z,9.10
2023-04-01T21:26:13.488Z,10.97
2023-04-01T21:28:53.833Z,10.67
2023-04-01T21:32:01.245Z,9.53
2023-04-01T21:34:44.342Z,9.83
2023-04-01T21:37:37.790Z,10.13
2023-04-01T21:40:39.636Z,10.73
2023-04-01T21:43:05.678Z,10.10
2023-04-01T21:45:52.233Z,10.03
2023-04-01T21:48:51.353Z,9.07
2023-04-01T21:51:34.156Z,9.47
2023-04-01T21:54:07.747Z,10.20
2023-04-01T21:57:19.647Z,9.57
2023-04-01T22:00:15.481Z,10.80
2023-04-01T22:02:54.404Z,10.77
2023-04-01T22:05:35.045Z,9.17
2023-04-01T22:08:27.395Z,9.23
2023-04-01T22:11:13.207Z,9.27
2023-04-01T22:14:03.178Z,9.43
2023-04-01T22:16:37.620Z,7.77
2023-04-01T22:19:36.606Z,8.23
2023-04-01T22:22:40.326Z,8.30
2023-04-01T22:25:30.903Z,8.70
2023-04-01T22:28:13.707Z,8.93
2023-04-01T22:30:46.727Z,10.87
2023-04-01T22:33:36.071Z,7.70
2023-04-01T22:36:29.920Z,8.37
2023-04-01T22:39:22.128Z,8.40
2023-04-01T22:42:09.551Z,8.57
2023-04-01T22:45:11.840Z,9.20
2023-04-01T22:48:02.966Z,10.07
2023-04-01T22:50:51.515Z,10.43
2023-04-01T22:53:46.676Z,10.77
2023-04-01T22:56:19.125Z,9.45
2023-04-01T22:59:11.622Z,11.03
2023-04-01T23:01:46.703Z,10.43
2023-04-01T23:04:17.193Z,10.57
2023-04-01T23:06:52.336Z,10.40
2023-04-01T23:09:24.744Z,11.27
2023-04-01T23:12:08.357Z,11.47
2023-04-01T23:14:59.279Z,10.87
2023-04-01T23:17:44.554Z,9.50
2023-04-01T23:20:23.586Z,11.07
2023-04-01T23:23:09.957Z,9.53
2023-04-01T23:25:50.733Z,8.70
2023-04-01T23:28:15.669Z,8.13
2023-04-01T23:30:40.424Z,8.43
2023-04-01T23:33:20.505Z,8.50
2023-04-01T23:35:55.040Z,7.80
2023-04-01T23:38:19.155Z,9.68
2023-04-01T23:40:41.794Z,8.40
2023-04-01T23:43:13.034Z,10.23
2023-04-01T23:45:35.984Z,7.77
2023-04-01T23:47:58.037Z,9.03
2023-04-01T23:50:25.239Z,8.43
2023-04-01T23:53:11.937Z,8.73
2023-04-01T23:55:35.824Z,9.00
2023-04-01T23:58:06.753Z,8.43
